sensor_id;sensor_type;location;lat;lon;timestamp;temperature;humidity
79760;DHT22;70512;42.122;24.732;2023-10-31T00:00:24;14.10;74.60
79760;DHT22;70512;42.122;24.732;2023-10-31T00:02:52;14.10;74.80
79760;DHT22;70512;42.122;24.732;2023-10-31T00:05:19;14.00;74.90
79760;DHT22;70512;42.122;24.732;2023-10-31T00:07:47;14.00;75.10
79760;DHT22;70512;42.122;24.732;2023-10-31T00:10:15;13.90;75.10
79760;DHT22;70512;42.122;24.732;2023-10-31T00:12:42;13.90;75.30
79760;DHT22;70512;42.122;24.732;2023-10-31T00:15:10;13.90;75.40
79760;DHT22;70512;42.122;24.732;2023-10-31T00:17:37;13.90;75.30
79760;DHT22;70512;42.122;24.732;2023-10-31T00:20:06;13.90;75.50
79760;DHT22;70512;42.122;24.732;2023-10-31T00:22:34;13.90;75.40
79760;DHT22;70512;42.122;24.732;2023-10-31T00:25:01;13.90;75.20
79760;DHT22;70512;42.122;24.732;2023-10-31T00:27:29;13.90;75.00
79760;DHT22;70512;42.122;24.732;2023-10-31T00:29:57;13.90;74.90
79760;DHT22;70512;42.122;24.732;2023-10-31T00:32:25;14.00;74.80
79760;DHT22;70512;42.122;24.732;2023-10-31T00:34:52;14.00;74.50
79760;DHT22;70512;42.122;24.732;2023-10-31T00:37:20;14.00;74.20
79760;DHT22;70512;42.122;24.732;2023-10-31T00:39:47;14.10;74.00
79760;DHT22;70512;42.122;24.732;2023-10-31T00:42:15;14.10;74.00
79760;DHT22;70512;42.122;24.732;2023-10-31T00:44:43;14.00;74.10
79760;DHT22;70512;42.122;24.732;2023-10-31T00:47:11;13.90;74.80
79760;DHT22;70512;42.122;24.732;2023-10-31T00:49:40;13.90;74.70
79760;DHT22;70512;42.122;24.732;2023-10-31T00:52:07;13.80;74.70
79760;DHT22;70512;42.122;24.732;2023-10-31T00:54:35;13.80;75.00
79760;DHT22;70512;42.122;24.732;2023-10-31T00:57:03;13.80;75.10
79760;DHT22;70512;42.122;24.732;2023-10-31T00:59:31;13.80;75.10
79760;DHT22;70512;42.122;24.732;2023-10-31T01:01:58;13.80;75.20
79760;DHT22;70512;42.122;24.732;2023-10-31T01:04:26;13.70;75.30
79760;DHT22;70512;42.122;24.732;2023-10-31T01:06:53;13.70;75.50
79760;DHT22;70512;42.122;24.732;2023-10-31T01:09:21;13.70;75.40
79760;DHT22;70512;42.122;24.732;2023-10-31T01:11:49;13.70;75.40
79760;DHT22;70512;42.122;24.732;2023-10-31T01:14:16;13.70;75.30
79760;DHT22;70512;42.122;24.732;2023-10-31T01:16:44;13.70;75.60
79760;DHT22;70512;42.122;24.732;2023-10-31T01:19:11;13.60;76.00
79760;DHT22;70512;42.122;24.732;2023-10-31T01:21:39;13.50;76.10
79760;DHT22;70512;42.122;24.732;2023-10-31T01:24:07;13.50;76.10
79760;DHT22;70512;42.122;24.732;2023-10-31T01:26:35;13.40;76.40
79760;DHT22;70512;42.122;24.732;2023-10-31T01:29:03;13.40;76.40
79760;DHT22;70512;42.122;24.732;2023-10-31T01:31:30;13.50;76.50
79760;DHT22;70512;42.122;24.732;2023-10-31T01:33:59;13.50;76.20
79760;DHT22;70512;42.122;24.732;2023-10-31T01:36:27;13.60;75.90
79760;DHT22;70512;42.122;24.732;2023-10-31T01:38:54;13.50;76.30
79760;DHT22;70512;42.122;24.732;2023-10-31T01:41:22;13.40;76.40
79760;DHT22;70512;42.122;24.732;2023-10-31T01:43:50;13.40;76.70
79760;DHT22;70512;42.122;24.732;2023-10-31T01:46:17;13.30;76.80
79760;DHT22;70512;42.122;24.732;2023-10-31T01:48:45;13.30;77.20
79760;DHT22;70512;42.122;24.732;2023-10-31T01:51:13;13.20;77.60
79760;DHT22;70512;42.122;24.732;2023-10-31T01:53:41;13.20;77.70
79760;DHT22;70512;42.122;24.732;2023-10-31T01:56:08;13.30;77.60
79760;DHT22;70512;42.122;24.732;2023-10-31T01:58:37;13.20;77.40
79760;DHT22;70512;42.122;24.732;2023-10-31T02:01:05;13.10;77.80
79760;DHT22;70512;42.122;24.732;2023-10-31T02:03:33;13.10;77.80
79760;DHT22;70512;42.122;24.732;2023-10-31T02:06:01;13.00;78.70
79760;DHT22;70512;42.122;24.732;2023-10-31T02:08:28;12.90;79.00
79760;DHT22;70512;42.122;24.732;2023-10-31T02:10:56;12.90;79.30
79760;DHT22;70512;42.122;24.732;2023-10-31T02:13:24;12.90;79.10
79760;DHT22;70512;42.122;24.732;2023-10-31T02:15:52;12.90;79.00
79760;DHT22;70512;42.122;24.732;2023-10-31T02:18:19;12.90;78.90
79760;DHT22;70512;42.122;24.732;2023-10-31T02:20:48;12.90;78.90
79760;DHT22;70512;42.122;24.732;2023-10-31T02:23:17;12.90;79.20
79760;DHT22;70512;42.122;24.732;2023-10-31T02:25:45;12.90;79.00
79760;DHT22;70512;42.122;24.732;2023-10-31T02:28:12;13.00;78.70
79760;DHT22;70512;42.122;24.732;2023-10-31T02:30:41;12.90;78.80
79760;DHT22;70512;42.122;24.732;2023-10-31T02:33:08;12.90;79.20
79760;DHT22;70512;42.122;24.732;2023-10-31T02:35:36;12.90;79.30
79760;DHT22;70512;42.122;24.732;2023-10-31T02:38:03;12.80;79.10
79760;DHT22;70512;42.122;24.732;2023-10-31T02:40:31;12.80;79.40
79760;DHT22;70512;42.122;24.732;2023-10-31T02:42:59;12.80;79.50
79760;DHT22;70512;42.122;24.732;2023-10-31T02:45:26;12.70;79.70
79760;DHT22;70512;42.122;24.732;2023-10-31T02:47:54;12.70;79.80
79760;DHT22;70512;42.122;24.732;2023-10-31T02:50:22;12.70;79.80
79760;DHT22;70512;42.122;24.732;2023-10-31T02:52:49;12.70;79.60
79760;DHT22;70512;42.122;24.732;2023-10-31T02:55:17;12.70;79.40
79760;DHT22;70512;42.122;24.732;2023-10-31T02:57:44;12.70;79.20
79760;DHT22;70512;42.122;24.732;2023-10-31T03:00:13;12.70;79.20
79760;DHT22;70512;42.122;24.732;2023-10-31T03:02:41;12.70;79.30
79760;DHT22;70512;42.122;24.732;2023-10-31T03:05:08;12.60;79.50
79760;DHT22;70512;42.122;24.732;2023-10-31T03:07:36;12.50;80.40
79760;DHT22;70512;42.122;24.732;2023-10-31T03:10:04;12.50;80.60
79760;DHT22;70512;42.122;24.732;2023-10-31T03:12:32;12.40;81.20
79760;DHT22;70512;42.122;24.732;2023-10-31T03:14:59;12.40;81.30
79760;DHT22;70512;42.122;24.732;2023-10-31T03:17:28;12.40;81.00
79760;DHT22;70512;42.122;24.732;2023-10-31T03:19:56;12.40;81.00
79760;DHT22;70512;42.122;24.732;2023-10-31T03:22:23;12.30;81.20
79760;DHT22;70512;42.122;24.732;2023-10-31T03:24:51;12.30;81.20
79760;DHT22;70512;42.122;24.732;2023-10-31T03:27:18;12.30;81.30
79760;DHT22;70512;42.122;24.732;2023-10-31T03:29:46;12.20;81.50
79760;DHT22;70512;42.122;24.732;2023-10-31T03:32:14;12.20;81.80
79760;DHT22;70512;42.122;24.732;2023-10-31T03:34:42;12.00;82.30
79760;DHT22;70512;42.122;24.732;2023-10-31T03:37:10;12.00;82.60
79760;DHT22;70512;42.122;24.732;2023-10-31T03:39:37;12.00;82.80
79760;DHT22;70512;42.122;24.732;2023-10-31T03:42:05;11.90;83.10
79760;DHT22;70512;42.122;24.732;2023-10-31T03:44:33;11.90;83.30
79760;DHT22;70512;42.122;24.732;2023-10-31T03:47:00;11.80;84.10
79760;DHT22;70512;42.122;24.732;2023-10-31T03:49:28;11.70;84.40
79760;DHT22;70512;42.122;24.732;2023-10-31T03:51:56;11.80;84.20
79760;DHT22;70512;42.122;24.732;2023-10-31T03:54:23;11.70;84.20
79760;DHT22;70512;42.122;24.732;2023-10-31T03:56:51;11.60;84.60
79760;DHT22;70512;42.122;24.732;2023-10-31T03:59:18;11.60;84.90
79760;DHT22;70512;42.122;24.732;2023-10-31T04:01:46;11.60;85.00
79760;DHT22;70512;42.122;24.732;2023-10-31T04:04:14;11.50;85.00
79760;DHT22;70512;42.122;24.732;2023-10-31T04:06:41;11.60;85.10
79760;DHT22;70512;42.122;24.732;2023-10-31T04:09:10;11.60;85.00
79760;DHT22;70512;42.122;24.732;2023-10-31T04:11:38;11.60;84.80
79760;DHT22;70512;42.122;24.732;2023-10-31T04:14:06;11.50;85.00
79760;DHT22;70512;42.122;24.732;2023-10-31T04:16:42;11.50;85.30
79760;DHT22;70512;42.122;24.732;2023-10-31T04:19:08;11.40;85.60
79760;DHT22;70512;42.122;24.732;2023-10-31T04:21:36;11.40;85.80
79760;DHT22;70512;42.122;24.732;2023-10-31T04:24:04;11.40;86.00
79760;DHT22;70512;42.122;24.732;2023-10-31T04:26:31;11.40;86.20
79760;DHT22;70512;42.122;24.732;2023-10-31T04:28:59;11.30;86.10
79760;DHT22;70512;42.122;24.732;2023-10-31T04:31:27;11.40;85.60
79760;DHT22;70512;42.122;24.732;2023-10-31T04:33:54;11.30;85.70
79760;DHT22;70512;42.122;24.732;2023-10-31T04:36:22;11.40;85.40
79760;DHT22;70512;42.122;24.732;2023-10-31T04:38:49;11.40;85.30
79760;DHT22;70512;42.122;24.732;2023-10-31T04:41:17;11.40;85.30
79760;DHT22;70512;42.122;24.732;2023-10-31T04:43:44;11.30;85.40
79760;DHT22;70512;42.122;24.732;2023-10-31T04:46:12;11.30;85.60
79760;DHT22;70512;42.122;24.732;2023-10-31T04:48:40;11.30;85.50
79760;DHT22;70512;42.122;24.732;2023-10-31T04:51:07;11.30;86.40
79760;DHT22;70512;42.122;24.732;2023-10-31T04:53:35;11.30;86.10
79760;DHT22;70512;42.122;24.732;2023-10-31T04:56:04;11.30;86.00
79760;DHT22;70512;42.122;24.732;2023-10-31T04:58:33;11.30;86.00
79760;DHT22;70512;42.122;24.732;2023-10-31T05:01:01;11.30;86.10
79760;DHT22;70512;42.122;24.732;2023-10-31T05:03:28;11.20;86.10
79760;DHT22;70512;42.122;24.732;2023-10-31T05:05:56;11.30;85.90
79760;DHT22;70512;42.122;24.732;2023-10-31T05:08:24;11.30;85.80
79760;DHT22;70512;42.122;24.732;2023-10-31T05:10:51;11.40;85.60
79760;DHT22;70512;42.122;24.732;2023-10-31T05:13:19;11.50;85.40
79760;DHT22;70512;42.122;24.732;2023-10-31T05:15:46;11.50;85.20
79760;DHT22;70512;42.122;24.732;2023-10-31T05:18:14;11.60;85.70
79760;DHT22;70512;42.122;24.732;2023-10-31T05:20:41;11.60;84.70
79760;DHT22;70512;42.122;24.732;2023-10-31T05:23:09;11.70;84.40
79760;DHT22;70512;42.122;24.732;2023-10-31T05:25:36;11.80;83.80
79760;DHT22;70512;42.122;24.732;2023-10-31T05:28:04;11.90;83.50
79760;DHT22;70512;42.122;24.732;2023-10-31T05:30:32;11.90;83.10
79760;DHT22;70512;42.122;24.732;2023-10-31T05:33:00;11.90;83.20
79760;DHT22;70512;42.122;24.732;2023-10-31T05:35:27;12.00;83.40
79760;DHT22;70512;42.122;24.732;2023-10-31T05:37:55;12.10;83.30
79760;DHT22;70512;42.122;24.732;2023-10-31T05:40:25;12.10;82.90
79760;DHT22;70512;42.122;24.732;2023-10-31T05:42:53;12.20;82.60
79760;DHT22;70512;42.122;24.732;2023-10-31T05:45:20;12.20;82.50
79760;DHT22;70512;42.122;24.732;2023-10-31T05:47:48;12.20;82.20
79760;DHT22;70512;42.122;24.732;2023-10-31T05:50:15;12.30;82.20
79760;DHT22;70512;42.122;24.732;2023-10-31T05:52:43;12.30;81.90
79760;DHT22;70512;42.122;24.732;2023-10-31T05:55:10;12.20;81.90
79760;DHT22;70512;42.122;24.732;2023-10-31T05:57:38;12.20;82.00
79760;DHT22;70512;42.122;24.732;2023-10-31T06:00:07;12.20;81.80
79760;DHT22;70512;42.122;24.732;2023-10-31T06:02:35;12.30;81.70
79760;DHT22;70512;42.122;24.732;2023-10-31T06:05:03;12.20;81.60
79760;DHT22;70512;42.122;24.732;2023-10-31T06:07:30;12.20;81.70
79760;DHT22;70512;42.122;24.732;2023-10-31T06:09:58;12.20;81.70
79760;DHT22;70512;42.122;24.732;2023-10-31T06:12:25;12.20;81.80
79760;DHT22;70512;42.122;24.732;2023-10-31T06:14:53;12.20;81.90
79760;DHT22;70512;42.122;24.732;2023-10-31T06:17:21;12.20;81.80
79760;DHT22;70512;42.122;24.732;2023-10-31T06:19:48;12.20;81.60
79760;DHT22;70512;42.122;24.732;2023-10-31T06:22:16;12.30;81.50
79760;DHT22;70512;42.122;24.732;2023-10-31T06:24:44;12.30;81.40
79760;DHT22;70512;42.122;24.732;2023-10-31T06:27:11;12.30;81.40
79760;DHT22;70512;42.122;24.732;2023-10-31T06:29:39;12.40;81.50
79760;DHT22;70512;42.122;24.732;2023-10-31T06:32:06;12.40;81.50
79760;DHT22;70512;42.122;24.732;2023-10-31T06:34:34;12.50;81.20
79760;DHT22;70512;42.122;24.732;2023-10-31T06:37:02;12.60;81.00
79760;DHT22;70512;42.122;24.732;2023-10-31T06:39:29;12.70;80.90
79760;DHT22;70512;42.122;24.732;2023-10-31T06:41:57;12.70;80.50
79760;DHT22;70512;42.122;24.732;2023-10-31T06:44:25;12.70;80.60
79760;DHT22;70512;42.122;24.732;2023-10-31T06:46:53;12.80;80.50
79760;DHT22;70512;42.122;24.732;2023-10-31T06:49:20;12.80;80.20
79760;DHT22;70512;42.122;24.732;2023-10-31T06:51:50;12.90;80.20
79760;DHT22;70512;42.122;24.732;2023-10-31T06:54:17;13.00;79.90
79760;DHT22;70512;42.122;24.732;2023-10-31T06:56:45;13.10;80.00
79760;DHT22;70512;42.122;24.732;2023-10-31T06:59:12;13.20;79.70
79760;DHT22;70512;42.122;24.732;2023-10-31T07:01:40;13.30;79.70
79760;DHT22;70512;42.122;24.732;2023-10-31T07:04:08;13.30;79.30
79760;DHT22;70512;42.122;24.732;2023-10-31T07:06:35;13.40;79.20
79760;DHT22;70512;42.122;24.732;2023-10-31T07:09:03;13.50;79.00
79760;DHT22;70512;42.122;24.732;2023-10-31T07:11:32;13.60;78.80
79760;DHT22;70512;42.122;24.732;2023-10-31T07:14:04;13.70;78.60
79760;DHT22;70512;42.122;24.732;2023-10-31T07:16:32;13.70;78.50
79760;DHT22;70512;42.122;24.732;2023-10-31T07:19:00;13.80;78.30
79760;DHT22;70512;42.122;24.732;2023-10-31T07:21:27;13.90;77.90
79760;DHT22;70512;42.122;24.732;2023-10-31T07:23:55;14.00;77.90
79760;DHT22;70512;42.122;24.732;2023-10-31T07:26:22;14.20;77.30
79760;DHT22;70512;42.122;24.732;2023-10-31T07:28:50;14.30;76.90
79760;DHT22;70512;42.122;24.732;2023-10-31T07:31:18;14.50;76.80
79760;DHT22;70512;42.122;24.732;2023-10-31T07:33:45;14.60;75.80
79760;DHT22;70512;42.122;24.732;2023-10-31T07:36:13;14.70;75.40
79760;DHT22;70512;42.122;24.732;2023-10-31T07:38:41;14.80;75.20
79760;DHT22;70512;42.122;24.732;2023-10-31T07:41:08;14.90;74.60
79760;DHT22;70512;42.122;24.732;2023-10-31T07:43:36;15.10;74.20
79760;DHT22;70512;42.122;24.732;2023-10-31T07:46:04;15.20;73.80
79760;DHT22;70512;42.122;24.732;2023-10-31T07:48:31;15.30;73.40
79760;DHT22;70512;42.122;24.732;2023-10-31T07:50:59;15.40;72.90
79760;DHT22;70512;42.122;24.732;2023-10-31T07:53:27;15.60;72.50
79760;DHT22;70512;42.122;24.732;2023-10-31T07:55:54;15.70;72.00
79760;DHT22;70512;42.122;24.732;2023-10-31T07:58:22;15.80;71.50
79760;DHT22;70512;42.122;24.732;2023-10-31T08:00:49;15.90;71.30
79760;DHT22;70512;42.122;24.732;2023-10-31T08:03:17;16.10;70.60
79760;DHT22;70512;42.122;24.732;2023-10-31T08:05:44;16.20;70.20
79760;DHT22;70512;42.122;24.732;2023-10-31T08:08:12;16.30;69.80
79760;DHT22;70512;42.122;24.732;2023-10-31T08:10:39;16.40;69.20
79760;DHT22;70512;42.122;24.732;2023-10-31T08:13:07;16.50;69.00
79760;DHT22;70512;42.122;24.732;2023-10-31T08:15:35;16.60;68.50
79760;DHT22;70512;42.122;24.732;2023-10-31T08:18:03;16.70;67.70
79760;DHT22;70512;42.122;24.732;2023-10-31T08:20:30;16.80;67.20
79760;DHT22;70512;42.122;24.732;2023-10-31T08:22:59;16.90;67.00
79760;DHT22;70512;42.122;24.732;2023-10-31T08:25:28;17.00;66.60
79760;DHT22;70512;42.122;24.732;2023-10-31T08:27:55;17.10;65.90
79760;DHT22;70512;42.122;24.732;2023-10-31T08:30:23;17.20;64.40
79760;DHT22;70512;42.122;24.732;2023-10-31T08:32:50;17.30;64.50
79760;DHT22;70512;42.122;24.732;2023-10-31T08:35:18;17.40;64.20
79760;DHT22;70512;42.122;24.732;2023-10-31T08:37:45;17.40;63.60
79760;DHT22;70512;42.122;24.732;2023-10-31T08:40:13;17.50;63.60
79760;DHT22;70512;42.122;24.732;2023-10-31T08:42:41;17.60;63.00
79760;DHT22;70512;42.122;24.732;2023-10-31T08:45:09;17.70;62.50
79760;DHT22;70512;42.122;24.732;2023-10-31T08:47:36;17.80;62.00
79760;DHT22;70512;42.122;24.732;2023-10-31T08:50:05;17.90;61.60
79760;DHT22;70512;42.122;24.732;2023-10-31T08:52:35;18.00;62.10
79760;DHT22;70512;42.122;24.732;2023-10-31T08:55:03;18.10;62.10
79760;DHT22;70512;42.122;24.732;2023-10-31T08:57:30;18.10;62.00
79760;DHT22;70512;42.122;24.732;2023-10-31T09:00:00;18.10;61.60
79760;DHT22;70512;42.122;24.732;2023-10-31T09:02:27;18.20;61.20
79760;DHT22;70512;42.122;24.732;2023-10-31T09:04:55;18.30;60.80
79760;DHT22;70512;42.122;24.732;2023-10-31T09:07:23;18.40;59.60
79760;DHT22;70512;42.122;24.732;2023-10-31T09:09:51;18.50;59.50
79760;DHT22;70512;42.122;24.732;2023-10-31T09:12:20;18.50;58.50
79760;DHT22;70512;42.122;24.732;2023-10-31T09:14:47;18.60;57.70
79760;DHT22;70512;42.122;24.732;2023-10-31T09:17:15;18.60;58.50
79760;DHT22;70512;42.122;24.732;2023-10-31T09:19:43;18.70;58.30
79760;DHT22;70512;42.122;24.732;2023-10-31T09:22:11;18.80;58.20
79760;DHT22;70512;42.122;24.732;2023-10-31T09:24:38;18.90;58.90
79760;DHT22;70512;42.122;24.732;2023-10-31T09:27:06;19.00;57.40
79760;DHT22;70512;42.122;24.732;2023-10-31T09:29:34;19.10;56.90
79760;DHT22;70512;42.122;24.732;2023-10-31T09:32:03;19.20;56.40
79760;DHT22;70512;42.122;24.732;2023-10-31T09:34:32;19.30;56.30
79760;DHT22;70512;42.122;24.732;2023-10-31T09:36:59;19.40;55.90
79760;DHT22;70512;42.122;24.732;2023-10-31T09:39:27;19.50;55.30
79760;DHT22;70512;42.122;24.732;2023-10-31T09:41:55;19.60;55.00
79760;DHT22;70512;42.122;24.732;2023-10-31T09:44:22;19.70;55.10
79760;DHT22;70512;42.122;24.732;2023-10-31T09:46:52;19.80;54.10
79760;DHT22;70512;42.122;24.732;2023-10-31T09:49:20;20.00;54.00
79760;DHT22;70512;42.122;24.732;2023-10-31T09:51:48;20.10;53.80
79760;DHT22;70512;42.122;24.732;2023-10-31T09:54:17;20.20;53.60
79760;DHT22;70512;42.122;24.732;2023-10-31T09:56:45;20.40;53.10
79760;DHT22;70512;42.122;24.732;2023-10-31T09:59:14;20.40;52.80
79760;DHT22;70512;42.122;24.732;2023-10-31T10:01:45;20.50;52.40
79760;DHT22;70512;42.122;24.732;2023-10-31T10:04:12;20.60;52.20
79760;DHT22;70512;42.122;24.732;2023-10-31T10:06:52;20.70;52.20
79760;DHT22;70512;42.122;24.732;2023-10-31T10:09:17;20.70;52.20
79760;DHT22;70512;42.122;24.732;2023-10-31T10:11:44;20.80;52.00
79760;DHT22;70512;42.122;24.732;2023-10-31T10:14:12;21.00;51.70
79760;DHT22;70512;42.122;24.732;2023-10-31T10:16:40;21.10;51.70
79760;DHT22;70512;42.122;24.732;2023-10-31T10:19:18;21.20;51.00
79760;DHT22;70512;42.122;24.732;2023-10-31T10:21:55;21.30;50.70
79760;DHT22;70512;42.122;24.732;2023-10-31T10:24:23;21.50;50.00
79760;DHT22;70512;42.122;24.732;2023-10-31T10:26:51;21.70;49.50
79760;DHT22;70512;42.122;24.732;2023-10-31T10:29:20;22.10;48.40
79760;DHT22;70512;42.122;24.732;2023-10-31T10:31:47;22.50;47.40
79760;DHT22;70512;42.122;24.732;2023-10-31T10:34:16;23.00;46.30
79760;DHT22;70512;42.122;24.732;2023-10-31T10:36:46;23.70;45.50
79760;DHT22;70512;42.122;24.732;2023-10-31T10:39:18;24.50;44.10
79760;DHT22;70512;42.122;24.732;2023-10-31T10:41:52;25.60;42.00
79760;DHT22;70512;42.122;24.732;2023-10-31T10:44:30;26.90;39.90
79760;DHT22;70512;42.122;24.732;2023-10-31T10:46:55;28.30;37.10
79760;DHT22;70512;42.122;24.732;2023-10-31T10:49:24;29.80;34.50
79760;DHT22;70512;42.122;24.732;2023-10-31T10:52:01;31.40;32.00
79760;DHT22;70512;42.122;24.732;2023-10-31T10:59:51;34.90;26.90
79760;DHT22;70512;42.122;24.732;2023-10-31T11:02:19;36.00;25.90
79760;DHT22;70512;42.122;24.732;2023-10-31T11:04:47;37.10;24.80
79760;DHT22;70512;42.122;24.732;2023-10-31T11:07:17;38.00;23.60
79760;DHT22;70512;42.122;24.732;2023-10-31T11:09:45;38.80;22.70
79760;DHT22;70512;42.122;24.732;2023-10-31T11:12:14;39.40;22.30
79760;DHT22;70512;42.122;24.732;2023-10-31T11:14:43;39.60;21.90
79760;DHT22;70512;42.122;24.732;2023-10-31T11:17:24;39.80;21.20
79760;DHT22;70512;42.122;24.732;2023-10-31T11:19:48;39.60;21.40
79760;DHT22;70512;42.122;24.732;2023-10-31T11:22:17;39.00;21.80
79760;DHT22;70512;42.122;24.732;2023-10-31T11:24:45;38.70;22.50
79760;DHT22;70512;42.122;24.732;2023-10-31T11:27:12;39.10;22.20
79760;DHT22;70512;42.122;24.732;2023-10-31T11:29:40;39.70;22.00
79760;DHT22;70512;42.122;24.732;2023-10-31T11:32:11;40.50;21.20
79760;DHT22;70512;42.122;24.732;2023-10-31T11:34:39;41.00;20.40
79760;DHT22;70512;42.122;24.732;2023-10-31T11:42:52;40.40;20.60
79760;DHT22;70512;42.122;24.732;2023-10-31T11:45:40;40.90;20.10
79760;DHT22;70512;42.122;24.732;2023-10-31T11:48:09;41.40;20.00
79760;DHT22;70512;42.122;24.732;2023-10-31T11:50:37;42.00;19.60
79760;DHT22;70512;42.122;24.732;2023-10-31T11:53:10;42.30;19.60
79760;DHT22;70512;42.122;24.732;2023-10-31T11:55:45;42.30;19.50
79760;DHT22;70512;42.122;24.732;2023-10-31T11:58:23;42.20;19.00
79760;DHT22;70512;42.122;24.732;2023-10-31T12:00:53;42.10;19.00
79760;DHT22;70512;42.122;24.732;2023-10-31T12:03:21;42.30;19.10
79760;DHT22;70512;42.122;24.732;2023-10-31T12:05:56;41.20;19.80
79760;DHT22;70512;42.122;24.732;2023-10-31T12:08:35;41.00;20.00
79760;DHT22;70512;42.122;24.732;2023-10-31T12:11:12;41.40;19.90
79760;DHT22;70512;42.122;24.732;2023-10-31T12:13:41;40.60;19.70
79760;DHT22;70512;42.122;24.732;2023-10-31T12:16:10;38.20;21.40
79760;DHT22;70512;42.122;24.732;2023-10-31T12:18:39;36.10;23.50
79760;DHT22;70512;42.122;24.732;2023-10-31T12:21:07;35.20;24.50
79760;DHT22;70512;42.122;24.732;2023-10-31T12:23:35;34.20;25.50
79760;DHT22;70512;42.122;24.732;2023-10-31T12:26:03;33.20;26.50
79760;DHT22;70512;42.122;24.732;2023-10-31T12:28:31;32.50;27.40
79760;DHT22;70512;42.122;24.732;2023-10-31T12:30:58;32.00;28.10
79760;DHT22;70512;42.122;24.732;2023-10-31T12:33:27;31.60;28.60
79760;DHT22;70512;42.122;24.732;2023-10-31T12:35:59;31.20;28.80
79760;DHT22;70512;42.122;24.732;2023-10-31T12:38:27;30.90;28.90
79760;DHT22;70512;42.122;24.732;2023-10-31T12:40:57;30.50;29.50
79760;DHT22;70512;42.122;24.732;2023-10-31T12:43:25;30.20;30.00
79760;DHT22;70512;42.122;24.732;2023-10-31T12:45:54;29.80;30.50
79760;DHT22;70512;42.122;24.732;2023-10-31T12:48:23;29.60;30.90
79760;DHT22;70512;42.122;24.732;2023-10-31T12:51:05;29.40;31.20
79760;DHT22;70512;42.122;24.732;2023-10-31T12:53:24;29.20;31.40
79760;DHT22;70512;42.122;24.732;2023-10-31T12:55:52;29.00;31.90
79760;DHT22;70512;42.122;24.732;2023-10-31T12:58:22;28.70;32.60
79760;DHT22;70512;42.122;24.732;2023-10-31T13:00:50;28.50;32.50
79760;DHT22;70512;42.122;24.732;2023-10-31T13:03:18;28.40;33.00
79760;DHT22;70512;42.122;24.732;2023-10-31T13:05:47;28.30;34.00
79760;DHT22;70512;42.122;24.732;2023-10-31T13:08:15;28.20;33.60
79760;DHT22;70512;42.122;24.732;2023-10-31T13:10:43;28.10;33.80
79760;DHT22;70512;42.122;24.732;2023-10-31T13:13:11;28.00;33.80
79760;DHT22;70512;42.122;24.732;2023-10-31T13:15:39;27.90;34.00
79760;DHT22;70512;42.122;24.732;2023-10-31T13:18:06;27.80;34.20
79760;DHT22;70512;42.122;24.732;2023-10-31T13:20:36;27.60;34.30
79760;DHT22;70512;42.122;24.732;2023-10-31T13:23:03;27.50;34.80
79760;DHT22;70512;42.122;24.732;2023-10-31T13:25:31;27.40;35.10
79760;DHT22;70512;42.122;24.732;2023-10-31T13:27:59;27.20;35.20
79760;DHT22;70512;42.122;24.732;2023-10-31T13:30:26;27.00;35.30
79760;DHT22;70512;42.122;24.732;2023-10-31T13:32:54;26.90;35.80
79760;DHT22;70512;42.122;24.732;2023-10-31T13:35:23;26.80;36.20
79760;DHT22;70512;42.122;24.732;2023-10-31T13:37:51;26.60;36.50
79760;DHT22;70512;42.122;24.732;2023-10-31T13:40:19;26.40;36.60
79760;DHT22;70512;42.122;24.732;2023-10-31T13:42:46;26.40;37.70
79760;DHT22;70512;42.122;24.732;2023-10-31T13:45:14;26.20;37.30
79760;DHT22;70512;42.122;24.732;2023-10-31T13:47:41;26.00;37.50
79760;DHT22;70512;42.122;24.732;2023-10-31T13:50:09;25.90;37.60
79760;DHT22;70512;42.122;24.732;2023-10-31T13:52:37;25.90;37.90
79760;DHT22;70512;42.122;24.732;2023-10-31T13:55:05;25.80;37.80
79760;DHT22;70512;42.122;24.732;2023-10-31T13:57:33;25.80;37.90
79760;DHT22;70512;42.122;24.732;2023-10-31T14:00:01;25.70;38.10
79760;DHT22;70512;42.122;24.732;2023-10-31T14:02:29;25.50;38.60
79760;DHT22;70512;42.122;24.732;2023-10-31T14:04:58;25.50;39.00
79760;DHT22;70512;42.122;24.732;2023-10-31T14:07:28;25.40;38.90
79760;DHT22;70512;42.122;24.732;2023-10-31T14:09:56;25.30;38.90
79760;DHT22;70512;42.122;24.732;2023-10-31T14:12:24;25.30;39.10
79760;DHT22;70512;42.122;24.732;2023-10-31T14:14:52;25.20;39.10
79760;DHT22;70512;42.122;24.732;2023-10-31T14:17:19;25.10;39.20
79760;DHT22;70512;42.122;24.732;2023-10-31T14:19:49;25.10;39.70
79760;DHT22;70512;42.122;24.732;2023-10-31T14:22:16;25.00;39.90
79760;DHT22;70512;42.122;24.732;2023-10-31T14:24:44;24.90;40.20
79760;DHT22;70512;42.122;24.732;2023-10-31T14:27:13;24.80;40.40
79760;DHT22;70512;42.122;24.732;2023-10-31T14:29:41;24.70;40.50
79760;DHT22;70512;42.122;24.732;2023-10-31T14:32:09;24.50;41.30
79760;DHT22;70512;42.122;24.732;2023-10-31T14:34:37;24.50;41.10
79760;DHT22;70512;42.122;24.732;2023-10-31T14:37:04;24.20;41.50
79760;DHT22;70512;42.122;24.732;2023-10-31T14:39:32;24.10;42.10
79760;DHT22;70512;42.122;24.732;2023-10-31T14:42:00;24.00;42.60
79760;DHT22;70512;42.122;24.732;2023-10-31T14:44:27;23.80;43.00
79760;DHT22;70512;42.122;24.732;2023-10-31T14:46:56;23.60;43.30
79760;DHT22;70512;42.122;24.732;2023-10-31T14:49:24;23.50;43.90
79760;DHT22;70512;42.122;24.732;2023-10-31T14:51:52;23.30;44.40
79760;DHT22;70512;42.122;24.732;2023-10-31T14:54:19;23.20;44.60
79760;DHT22;70512;42.122;24.732;2023-10-31T14:56:47;23.10;44.80
79760;DHT22;70512;42.122;24.732;2023-10-31T14:59:15;22.90;45.20
79760;DHT22;70512;42.122;24.732;2023-10-31T15:01:42;22.70;45.60
79760;DHT22;70512;42.122;24.732;2023-10-31T15:04:10;22.50;46.10
79760;DHT22;70512;42.122;24.732;2023-10-31T15:06:38;22.40;46.50
79760;DHT22;70512;42.122;24.732;2023-10-31T15:09:05;22.20;47.00
79760;DHT22;70512;42.122;24.732;2023-10-31T15:11:33;22.00;47.30
79760;DHT22;70512;42.122;24.732;2023-10-31T15:14:01;21.90;47.80
79760;DHT22;70512;42.122;24.732;2023-10-31T15:16:29;21.70;48.50
79760;DHT22;70512;42.122;24.732;2023-10-31T15:19:00;21.60;49.00
79760;DHT22;70512;42.122;24.732;2023-10-31T15:21:28;21.50;49.70
79760;DHT22;70512;42.122;24.732;2023-10-31T15:23:55;21.30;49.90
79760;DHT22;70512;42.122;24.732;2023-10-31T15:26:24;21.30;50.40
79760;DHT22;70512;42.122;24.732;2023-10-31T15:28:53;21.20;50.80
79760;DHT22;70512;42.122;24.732;2023-10-31T15:31:20;21.10;51.40